Bookmark and Share
Track history (hours):
 

Umar1

Last reported at 2014-Apr-13 20:33 UTC. Time now 2014-Apr-17 09:48 UTC.
Position N 36°40' E 014°30'.

Length 100 m; draft 4.1 m.

Type: Ship. MMSI: 248751000.

NotesDate/timePositionNaut miles runAvg speedWind from/ knotsBaromVisibWave heightAir tempDewpointWater temp
2014-Apr-13 20:33N 36°40' E 014°30'199 9.8
2014-Apr-13 00:13N 38°03' E 010°43'6 9.5
2014-Apr-12 23:33N 38°03' E 010°35'11 9.7
2014-Apr-12 22:28N 38°05' E 010°21'9 9.9
2014-Apr-12 21:33N 38°06' E 010°10'1110.2
2014-Apr-12 20:27N 38°08' E 009°56'910.0
2014-Apr-12 19:33N 38°09' E 009°45'1010.0
2014-Apr-12 18:32N 38°11' E 009°32'1010.1
2014-Apr-12 17:33N 38°13' E 009°20'1010.0
2014-Apr-12 16:33N 38°15' E 009°07'14 9.8
2014-Apr-12 15:05N 38°17' E 008°49'7 9.6
2014-Apr-12 14:23N 38°18' E 008°40'8 9.7
2014-Apr-12 13:33N 38°19' E 008°30'1310.2
2014-Apr-12 12:20N 38°21' E 008°15'10 9.9
2014-Apr-12 11:17N 38°23' E 008°02'1110.8
2014-Apr-12 10:19N 38°25' E 007°49'4510.6
2014-Apr-12 06:05N 38°31' E 006°52'5612.0
2014-Apr-12 01:24N 38°40' E 005°41'4611.8
2014-Apr-11 21:28N 38°54' E 004°44'1111.5
2014-Apr-11 20:33N 38°58' E 004°32'1211.5
2014-Apr-11 19:32N 39°04' E 004°19'2311.4
2014-Apr-11 17:33N 39°15' E 003°53'1211.3
2014-Apr-11 16:31N 39°22' E 003°41'5 3.8
2014-Apr-11 15:14N 39°24' E 003°35'1 1.4
2014-Apr-11 14:33N 39°23' E 003°35'1 1.3
2014-Apr-11 13:33N 39°22' E 003°34'1 1.0
2014-Apr-11 12:26N 39°21' E 003°34'1 1.3
2014-Apr-11 11:33N 39°20' E 003°34'1 1.5
2014-Apr-11 10:33N 39°18' E 003°34'2 2.0
2014-Apr-11 09:33N 39°20' E 003°32'3 2.7
2014-Apr-11 08:33N 39°22' E 003°31'1 0.8
2014-Apr-11 07:33N 39°22' E 003°30'1 0.6
2014-Apr-11 06:33N 39°21' E 003°30'1 0.6
2014-Apr-11 05:33N 39°20' E 003°30'1 0.7
2014-Apr-11 04:33N 39°20' E 003°30'1 0.7
2014-Apr-11 03:33N 39°19' E 003°30'1 0.7
2014-Apr-11 02:33N 39°18' E 003°29'0 0.5
2014-Apr-11 01:33N 39°18' E 003°29'0 0.3
2014-Apr-11 00:33N 39°18' E 003°29'1 0.5
2014-Apr-10 23:33N 39°18' E 003°28'1 0.6
2014-Apr-10 22:33N 39°17' E 003°28'1 0.8
2014-Apr-10 21:33N 39°16' E 003°27'1 0.8
2014-Apr-10 20:33N 39°16' E 003°26'1 0.9
2014-Apr-10 19:33N 39°15' E 003°26'1 0.9
2014-Apr-10 18:33N 39°14' E 003°25'1 1.0
2014-Apr-10 17:33N 39°14' E 003°24'1 1.0
2014-Apr-10 16:33N 39°13' E 003°24'1 1.0
2014-Apr-10 15:33N 39°12' E 003°23'1 1.1
2014-Apr-10 14:33N 39°11' E 003°23'2 2.5
2014-Apr-10 13:33N 39°13' E 003°22'1 0.8
2014-Apr-10 12:33N 39°13' E 003°21'1212.4
2014-Apr-10 11:33N 39°01' E 003°13'9 9.0
2014-Apr-10 10:33N 39°01' E 003°02'10 9.6
2014-Apr-10 09:33N 39°02' E 002°50'10 9.7
2014-Apr-10 08:33N 39°04' E 002°38'10 9.7
2014-Apr-10 07:33N 39°06' E 002°25'10 9.7
2014-Apr-10 06:33N 39°09' E 002°13'10 9.8
2014-Apr-10 05:33N 39°11' E 002°01'10 9.7
2014-Apr-10 04:33N 39°14' E 001°49'10 9.6
2014-Apr-10 03:33N 39°16' E 001°37'10 9.8
2014-Apr-10 02:33N 39°21' E 001°26'  
2014-Apr-07 02:17N 39°48' E 000°16'12810.0
2014-Apr-06 13:33N 37°43' W 000°22'1010.1
2014-Apr-06 12:33N 37°35' W 000°29'242 9.5
2014-Apr-05 11:07N 35°60' W 005°08'713.4
2014-Apr-05 10:34N 35°59' W 005°17'2612.8
2014-Apr-05 08:31N 35°56' W 005°49'117 3.6
2014-Apr-04 00:11N 36°40' W 008°03'2211.8
2014-Apr-03 22:19N 36°35' W 008°30'  

Dump ship's entire track history

sailing weather and tide predictions

Umar1 — 9HA2498 — position and weather